Time;durP1;ratioP1;P1;durP2;ratioP2;P2;SDS_P1;SDS_P2;PMS_P1;PMS_P2;Temp;Humidity;BMP_temperature;BMP_pressure;BME280_temperature;BME280_humidity;BME280_pressure;Samples;Min_cycle;Max_cycle;Signal;HPM_P1;HPM_P2
2022/11/12 00:02:12;;;;;;;;;7.25;7.25;;;;;21.64;44.82;102774.78;5034952;28;45424;-77
2022/11/12 00:04:38;;;;;;;;;7.50;7.25;;;;;21.67;44.77;102776.34;5028700;28;45450;-82
2022/11/12 00:07:03;;;;;;;;;8.00;7.00;;;;;21.69;44.94;102785.84;5021265;28;46087;-79
2022/11/12 00:09:28;;;;;;;;;8.50;6.50;;;;;21.66;45.00;102775.50;5034283;28;45462;-81
2022/11/12 00:11:54;;;;;;;;;8.00;6.00;;;;;21.67;44.61;102771.03;5035189;28;45505;-78
2022/11/12 00:14:19;;;;;;;;;8.75;8.00;;;;;21.69;44.53;102783.19;5036290;28;45541;-79
2022/11/12 00:16:44;;;;;;;;;7.00;7.00;;;;;21.70;45.02;102784.84;5023650;28;45384;-81
2022/11/12 00:19:09;;;;;;;;;6.75;6.75;;;;;21.68;45.03;102784.16;5026091;28;45470;-78
2022/11/12 00:21:35;;;;;;;;;8.75;7.00;;;;;21.71;44.50;102788.34;5032325;28;45366;-78
2022/11/12 00:24:00;;;;;;;;;7.00;7.00;;;;;21.67;44.74;102785.13;5030905;28;45524;-77
2022/11/12 00:26:26;;;;;;;;;8.50;7.50;;;;;21.72;45.13;102788.22;5015419;28;45488;-77
2022/11/12 00:28:51;;;;;;;;;6.33;6.33;;;;;21.73;45.01;102781.94;5034463;28;45456;-77
2022/11/12 00:31:16;;;;;;;;;7.50;7.00;;;;;21.76;45.11;102783.50;5032084;28;50917;-79
2022/11/12 00:33:42;;;;;;;;;7.00;7.00;;;;;21.76;44.79;102772.88;5035905;28;45582;-77
2022/11/12 00:36:08;;;;;;;;;8.67;7.00;;;;;21.73;44.73;102766.03;5032876;28;45576;-78
2022/11/12 00:38:33;;;;;;;;;9.00;7.00;;;;;21.64;44.81;102753.59;5030694;28;45537;-78
2022/11/12 00:40:59;;;;;;;;;8.67;7.00;;;;;21.71;45.12;102764.50;5032779;28;50074;-78
2022/11/12 00:43:25;;;;;;;;;7.00;7.00;;;;;21.73;45.27;102773.16;5031913;28;45507;-77
2022/11/12 00:45:50;;;;;;;;;8.75;8.25;;;;;21.73;45.33;102771.34;5035180;28;45418;-77
2022/11/12 00:48:15;;;;;;;;;9.00;6.33;;;;;21.72;45.28;102774.13;5036257;28;45424;-78
2022/11/12 00:50:40;;;;;;;;;7.00;7.00;;;;;21.73;44.91;102779.28;5033543;28;46306;-77
2022/11/12 00:53:06;;;;;;;;;6.50;6.50;;;;;21.67;45.29;102749.84;5036124;28;45425;-78
2022/11/12 00:55:31;;;;;;;;;9.25;8.00;;;;;21.69;45.58;102751.41;5030038;28;45430;-78
2022/11/12 00:57:58;;;;;;;;;9.00;7.75;;;;;21.67;45.27;102749.84;5034090;28;45259;-76
2022/11/12 01:00:23;;;;;;;;;5.75;5.75;;;;;21.71;45.51;102760.03;5017593;28;46071;-75
2022/11/12 01:02:49;;;;;;;;;7.00;6.00;;;;;21.69;45.39;102750.56;5017258;28;45260;-75
2022/11/12 01:05:14;;;;;;;;;8.00;7.33;;;;;21.74;45.35;102761.59;5027976;28;45281;-75
2022/11/12 01:07:40;;;;;;;;;7.00;6.00;;;;;21.74;45.62;102758.94;5037669;28;45387;-76
2022/11/12 01:10:06;;;;;;;;;8.50;7.25;;;;;21.70;45.32;102745.09;5037693;28;45437;-77
2022/11/12 01:12:32;;;;;;;;;8.25;6.00;;;;;21.71;45.25;102746.81;5036961;28;45555;-76
2022/11/12 01:14:57;;;;;;;;;1.50;1.00;;;;;21.63;45.19;102744.81;5037454;28;45381;-76
2022/11/12 01:17:22;;;;;;;;;10.00;7.00;;;;;21.76;45.11;102754.34;5037119;28;45423;-77
2022/11/12 01:19:49;;;;;;;;;9.33;7.67;;;;;21.69;45.23;102740.81;5015497;28;47686;-76
2022/11/12 01:22:14;;;;;;;;;8.67;7.00;;;;;21.71;44.82;102744.16;5035905;28;45390;-77
2022/11/12 01:24:39;;;;;;;;;8.00;6.33;;;;;21.72;44.81;102748.50;5037244;28;45467;-76
2022/11/12 01:27:05;;;;;;;;;6.50;6.50;;;;;21.71;45.38;102746.81;5037673;28;45417;-77
2022/11/12 01:29:30;;;;;;;;;8.25;7.50;;;;;21.73;44.76;102744.00;5037156;28;46082;-77
2022/11/12 01:31:55;;;;;;;;;6.33;5.00;;;;;21.72;45.14;102750.28;5037063;28;45560;-76
2022/11/12 01:34:21;;;;;;;;;8.25;6.75;;;;;21.69;45.15;102745.25;5037391;28;45638;-76
2022/11/12 01:36:46;;;;;;;;;8.50;7.50;;;;;21.71;44.71;102748.59;5032303;28;45411;-77
2022/11/12 01:39:12;;;;;;;;;8.67;8.67;;;;;21.68;45.10;102741.75;5027905;28;46124;-77
2022/11/12 01:41:39;;;;;;;;;8.00;7.33;;;;;21.70;44.69;102739.00;5037049;28;45441;-77
2022/11/12 01:44:17;;;;;;;;;7.00;6.33;;;;;21.71;44.50;102744.16;5037167;28;45330;-76
2022/11/12 01:47:12;;;;;;;;;9.00;6.00;;;;;21.71;44.70;102732.72;5036733;28;45512;-76
2022/11/12 01:50:15;;;;;;;;;7.00;5.67;;;;;21.72;44.73;102713.22;5036779;28;46230;-76
2022/11/12 01:53:00;;;;;;;;;7.00;7.00;;;;;21.67;44.63;102708.31;5036516;28;45441;-76
2022/11/12 01:55:31;;;;;;;;;10.00;7.33;;;;;21.70;44.65;102709.84;5036641;28;45420;-77
2022/11/12 01:58:07;;;;;;;;;9.67;7.67;;;;;21.68;44.35;102701.19;5036846;28;45398;-76
2022/11/12 02:00:32;;;;;;;;;7.33;7.33;;;;;21.71;44.74;102708.88;5031251;28;46312;-76
2022/11/12 02:03:01;;;;;;;;;11.50;9.00;;;;;21.72;44.84;102716.69;5027361;28;45307;-76
2022/11/12 02:05:28;;;;;;;;;7.00;7.00;;;;;21.71;44.37;102715.00;5023979;28;45346;-77
2022/11/12 02:07:56;;;;;;;;;10.50;7.75;;;;;21.71;44.45;102712.34;5014297;28;45325;-76
2022/11/12 02:10:22;;;;;;;;;3.33;2.67;;;;;21.70;44.89;102707.22;5028039;28;46125;-77
2022/11/12 02:15:35;;;;;;;;;7.00;7.00;;;;;21.68;44.57;102712.63;5036260;28;45299;-76
2022/11/12 02:18:01;;;;;;;;;7.25;6.00;;;;;21.68;44.84;102711.78;5036382;28;45717;-77
2022/11/12 02:20:32;;;;;;;;;7.50;6.50;;;;;21.66;44.36;102711.06;5036239;28;47120;-76
2022/11/12 02:22:58;;;;;;;;;6.50;6.25;;;;;21.66;44.78;102709.25;5036235;28;45328;-76
2022/11/12 02:25:25;;;;;;;;;7.75;7.00;;;;;21.65;44.37;102712.88;5036309;28;45379;-76
2022/11/12 02:27:53;;;;;;;;;10.67;9.67;;;;;21.64;44.69;102708.56;5036203;28;45455;-76
2022/11/12 02:30:30;;;;;;;;;7.33;7.33;;;;;21.62;44.50;102705.22;5035796;28;47611;-76
2022/11/12 02:32:55;;;;;;;;;7.33;7.33;;;;;21.63;44.79;102712.16;5035534;28;45308;-75
2022/11/12 02:35:20;;;;;;;;;8.00;8.00;;;;;21.63;44.29;102706.88;5036452;28;45433;-76
2022/11/12 02:37:46;;;;;;;;;8.25;8.25;;;;;21.62;44.43;102697.28;5036293;28;45425;-76
2022/11/12 02:40:11;;;;;;;;;7.50;7.50;;;;;21.61;44.44;102696.44;5035769;28;47316;-76
2022/11/12 02:42:37;;;;;;;;;5.33;5.33;;;;;21.62;44.67;102686.69;5036421;28;45584;-76
2022/11/12 02:45:02;;;;;;;;;7.67;7.67;;;;;21.62;44.22;102697.28;5035686;28;45315;-77
2022/11/12 02:47:28;;;;;;;;;8.33;7.00;;;;;21.58;44.76;102690.53;5036390;28;45308;-76
2022/11/12 02:49:53;;;;;;;;;6.00;6.00;;;;;21.56;44.71;102689.84;5036508;28;46125;-76
2022/11/12 02:52:18;;;;;;;;;6.75;6.75;;;;;21.60;44.51;102693.88;5035957;28;46868;-76
2022/11/12 02:54:44;;;;;;;;;6.00;6.00;;;;;21.58;44.69;102694.03;5036039;28;45414;-76
2022/11/12 02:57:09;;;;;;;;;8.00;8.00;;;;;21.59;44.31;102694.88;5035427;28;45407;-76
2022/11/12 02:59:34;;;;;;;;;7.67;6.00;;;;;21.58;44.32;102688.72;5035167;28;47159;-76
2022/11/12 03:02:00;;;;;;;;;8.00;7.50;;;;;21.47;44.72;102665.81;5035725;28;45293;-76
2022/11/12 03:04:25;;;;;;;;;9.00;9.00;;;;;21.58;44.71;102688.72;5037736;28;45275;-75
2022/11/12 03:06:51;;;;;;;;;11.00;9.00;;;;;21.55;44.50;102678.41;5045783;28;45192;-75
2022/11/12 03:09:16;;;;;;;;;7.33;6.67;;;;;21.53;44.24;102680.34;5035598;28;45926;-76
2022/11/12 03:11:41;;;;;;;;;6.75;6.75;;;;;21.54;44.25;102683.84;5035432;28;45437;-75
2022/11/12 03:14:07;;;;;;;;;9.00;7.00;;;;;21.56;44.41;102690.69;5035272;28;45282;-76
2022/11/12 03:16:32;;;;;;;;;6.25;6.25;;;;;21.57;44.35;102684.41;5035602;28;45501;-77
2022/11/12 03:18:57;;;;;;;;;7.33;7.33;;;;;21.59;44.35;102685.13;5035575;28;54238;-76
2022/11/12 03:21:23;;;;;;;;;9.00;8.00;;;;;21.59;44.62;102693.06;5035452;28;45402;-76
2022/11/12 03:23:48;;;;;;;;;7.33;6.67;;;;;21.56;44.33;102688.03;5035703;28;45379;-76
2022/11/12 03:26:13;;;;;;;;;8.25;7.00;;;;;21.52;44.18;102686.59;5035401;28;45463;-76
2022/11/12 03:28:38;;;;;;;;;8.75;8.75;;;;;21.58;44.21;102694.03;5033679;28;45660;-76
2022/11/12 03:31:04;;;;;;;;;6.33;6.33;;;;;21.58;44.33;102699.31;5035647;28;45414;-76
2022/11/12 03:33:29;;;;;;;;;7.25;7.00;;;;;21.62;44.60;102700.72;5035545;28;45431;-76
2022/11/12 03:35:55;;;;;;;;;11.00;9.00;;;;;21.62;44.11;102691.97;5035443;28;45441;-76
2022/11/12 03:38:20;;;;;;;;;9.50;8.50;;;;;21.61;44.06;102693.78;5035134;28;45347;-76
2022/11/12 03:40:45;;;;;;;;;9.00;9.00;;;;;21.60;44.40;102694.72;5035320;28;45467;-76
2022/11/12 03:43:11;;;;;;;;;3.33;3.00;;;;;21.63;44.20;102704.22;5034847;28;45236;-76
2022/11/12 03:45:36;;;;;;;;;6.67;6.00;;;;;21.62;44.04;102706.03;5035352;28;45291;-76
2022/11/12 03:48:01;;;;;;;;;7.33;7.00;;;;;21.61;44.05;102701.72;5035117;28;46084;-76
2022/11/12 03:50:28;;;;;;;;;9.33;9.33;;;;;21.60;44.56;102707.97;5034986;28;45421;-76
2022/11/12 03:52:56;;;;;;;;;6.25;5.75;;;;;21.55;44.25;102699.59;5035465;28;45438;-76
2022/11/12 03:55:24;;;;;;;;;9.00;8.00;;;;;21.60;44.36;102704.47;5035080;28;45418;-76
2022/11/12 03:57:51;;;;;;;;;8.00;8.00;;;;;21.58;43.87;102698.50;5034059;28;46065;-75
2022/11/12 04:00:17;;;;;;;;;7.00;7.00;;;;;21.56;44.37;102693.34;5034793;28;45439;-76
2022/11/12 04:02:43;;;;;;;;;6.75;6.00;;;;;21.58;44.12;102695.84;5035220;28;45395;-76
2022/11/12 04:08:35;;;;;;;;;7.00;7.00;;;;;21.55;44.51;102682.84;5034096;28;45293;-75
2022/11/12 04:11:12;;;;;;;;;7.50;7.50;;;;;21.56;44.61;102669.50;5034311;28;45448;-76
2022/11/12 04:13:46;;;;;;;;;7.75;6.50;;;;;21.51;44.42;102672.53;5035196;28;45402;-76
2022/11/12 04:21:54;;;;;;;;;7.00;7.00;;;;;21.52;44.35;102698.03;5034710;28;45442;-76
2022/11/12 04:27:16;;;;;;;;;8.50;6.50;;;;;21.50;44.08;102697.34;5034675;28;45518;-76
2022/11/12 04:32:28;;;;;;;;;6.00;6.00;;;;;21.47;44.64;102689.66;5034761;28;45251;-76
2022/11/12 04:34:54;;;;;;;;;9.67;7.00;;;;;21.48;44.23;102696.63;5034831;28;45378;-76
2022/11/12 04:37:20;;;;;;;;;8.00;8.00;;;;;21.50;44.08;102692.03;5033295;28;45318;-76
2022/11/12 04:39:46;;;;;;;;;7.00;7.00;;;;;21.50;44.29;102696.50;5034106;28;45295;-76
2022/11/12 04:44:58;;;;;;;;;8.25;7.25;;;;;21.47;44.62;102697.59;5034494;28;45398;-76
2022/11/12 04:47:25;;;;;;;;;9.00;7.33;;;;;21.48;44.74;102701.09;5034400;28;45561;-76
2022/11/12 04:49:50;;;;;;;;;7.00;6.00;;;;;21.45;44.43;102693.41;5033571;28;47406;-76
2022/11/12 04:52:16;;;;;;;;;6.75;6.00;;;;;21.47;44.24;102692.28;5034622;28;45366;-76
2022/11/12 04:54:41;;;;;;;;;6.50;6.00;;;;;21.44;44.55;102689.94;5034270;28;45445;-76
2022/11/12 04:57:07;;;;;;;;;7.00;7.00;;;;;21.48;44.22;102683.41;5037560;28;45432;-76
2022/11/12 04:59:32;;;;;;;;;6.75;6.75;;;;;21.47;44.12;102681.72;5038011;28;46618;-76
2022/11/12 05:01:57;;;;;;;;;7.75;7.00;;;;;21.50;44.19;102681.44;5019671;28;45917;-76
2022/11/12 05:04:26;;;;;;;;;7.75;7.75;;;;;21.52;44.14;102690.09;5037021;28;45416;-76
2022/11/12 05:06:52;;;;;;;;;7.33;7.33;;;;;21.50;44.41;102694.69;5038033;28;45437;-76
2022/11/12 05:09:20;;;;;;;;;9.75;8.00;;;;;21.54;44.30;102695.28;5037035;28;46437;-76
2022/11/12 05:11:45;;;;;;;;;7.25;5.00;;;;;21.54;44.64;102691.78;5037230;28;45404;-76
2022/11/12 05:14:11;;;;;;;;;7.75;6.75;;;;;21.57;44.07;102692.34;5037452;28;45475;-76
2022/11/12 05:16:36;;;;;;;;;6.00;6.00;;;;;21.55;44.08;102693.44;5037695;28;45325;-76
2022/11/12 05:19:03;;;;;;;;;7.00;5.67;;;;;21.57;43.76;102689.69;5037273;28;47051;-76
2022/11/12 05:24:12;;;;;;;;;10.00;9.00;;;;;21.57;44.31;102681.75;5037274;28;45363;-76
2022/11/12 05:26:38;;;;;;;;;9.00;7.00;;;;;21.54;44.42;102678.53;5037149;28;45365;-76
2022/11/12 05:29:03;;;;;;;;;7.00;6.25;;;;;21.58;43.98;102679.94;5037030;28;46082;-76
2022/11/12 05:31:28;;;;;;;;;9.75;7.25;;;;;21.54;43.93;102683.84;5037405;28;45411;-76
2022/11/12 05:33:54;;;;;;;;;8.00;8.00;;;;;21.51;44.54;102688.44;5037638;28;45351;-76
2022/11/12 05:36:20;;;;;;;;;8.00;6.67;;;;;21.50;43.87;102680.59;5037174;28;45459;-76
2022/11/12 05:38:45;;;;;;;;;6.67;6.67;;;;;21.51;44.54;102691.09;5036808;28;46159;-76
2022/11/12 05:41:11;;;;;;;;;7.00;6.50;;;;;21.51;44.04;102693.72;5036718;28;45350;-76
2022/11/12 05:43:36;;;;;;;;;9.50;8.75;;;;;21.51;44.26;102682.28;5037262;28;45431;-76
2022/11/12 05:46:02;;;;;;;;;9.00;8.00;;;;;21.50;44.18;102683.25;5042482;28;45411;-76
2022/11/12 05:48:28;;;;;;;;;7.00;7.00;;;;;21.52;43.97;102698.03;5036697;28;46287;-76
2022/11/12 05:50:53;;;;;;;;;4.67;4.67;;;;;21.52;44.48;102691.91;5036885;28;45366;-75
2022/11/12 05:53:19;;;;;;;;;7.00;6.25;;;;;21.48;44.24;102685.19;5036216;28;45366;-76
2022/11/12 05:55:44;;;;;;;;;7.67;7.67;;;;;21.48;44.40;102683.41;5030249;28;45417;-76
2022/11/12 05:58:09;;;;;;;;;6.00;5.33;;;;;21.47;44.47;102676.41;5029666;28;47086;-76
2022/11/12 06:00:37;;;;;;;;;8.00;7.33;;;;;21.52;44.46;102683.94;5036705;28;45540;-76
2022/11/12 06:03:11;;;;;;;;;7.00;7.00;;;;;21.51;44.51;102682.28;5036983;28;45386;-77
2022/11/12 06:05:37;;;;;;;;;6.75;5.75;;;;;21.49;44.44;102684.25;5020785;28;45243;-76
2022/11/12 06:08:04;;;;;;;;;9.00;7.00;;;;;21.50;44.36;102681.44;5035827;28;47318;-76
2022/11/12 06:10:30;;;;;;;;;6.00;6.00;;;;;21.49;44.41;102682.41;5036811;28;45351;-76
2022/11/12 06:12:56;;;;;;;;;7.00;6.75;;;;;21.49;44.46;102674.47;5036782;28;45291;-77
2022/11/12 06:15:21;;;;;;;;;7.00;7.00;;;;;21.46;44.40;102674.75;5036372;28;45402;-76
2022/11/12 06:17:46;;;;;;;;;6.00;6.00;;;;;21.48;44.55;102671.97;5036411;28;45401;-77
2022/11/12 06:20:12;;;;;;;;;8.00;7.00;;;;;21.47;44.31;102667.63;5036482;28;45802;-76
2022/11/12 06:22:37;;;;;;;;;9.00;7.33;;;;;21.46;44.25;102672.09;5045964;28;45419;-76
2022/11/12 06:25:04;;;;;;;;;7.33;7.33;;;;;21.47;44.10;102681.72;5030308;28;45419;-77
2022/11/12 06:27:30;;;;;;;;;7.67;6.00;;;;;21.44;44.47;102681.16;5028586;28;47246;-76
2022/11/12 06:29:55;;;;;;;;;6.00;6.00;;;;;21.47;44.36;102680.84;5036102;28;45419;-75
2022/11/12 06:32:20;;;;;;;;;6.75;6.75;;;;;21.46;44.02;102682.69;5036318;28;45431;-76
2022/11/12 06:34:46;;;;;;;;;5.00;5.00;;;;;21.42;44.31;102675.97;5036411;28;45382;-76
2022/11/12 06:37:11;;;;;;;;;5.67;5.67;;;;;21.46;44.20;102685.34;5035262;28;54273;-76
2022/11/12 06:39:36;;;;;;;;;8.00;6.00;;;;;21.47;44.05;102697.59;5036357;28;45417;-77
2022/11/12 06:42:02;;;;;;;;;9.00;8.25;;;;;21.45;44.37;102698.69;5036291;28;45449;-76
2022/11/12 06:44:27;;;;;;;;;8.00;8.00;;;;;21.47;44.47;102696.75;5036624;28;45312;-76
2022/11/12 06:46:53;;;;;;;;;8.75;7.00;;;;;21.50;44.51;102697.34;5035925;28;45488;-76
2022/11/12 06:49:18;;;;;;;;;8.00;8.00;;;;;21.47;43.88;102683.50;5035804;28;45453;-76
2022/11/12 06:51:44;;;;;;;;;7.00;7.00;;;;;21.53;44.04;102693.59;5035488;28;45500;-76
2022/11/12 06:54:09;;;;;;;;;8.67;8.00;;;;;21.52;44.58;102689.25;5036217;28;45271;-76
2022/11/12 06:56:34;;;;;;;;;8.67;7.33;;;;;21.46;44.06;102685.34;5035754;28;47015;-76
2022/11/12 06:59:00;;;;;;;;;7.00;7.00;;;;;21.52;44.21;102690.09;5035907;28;45279;-77
2022/11/12 07:01:25;;;;;;;;;6.00;6.00;;;;;21.51;43.85;102683.13;5036094;28;45310;-76
2022/11/12 07:03:52;;;;;;;;;8.00;8.00;;;;;21.55;44.23;102696.94;5035644;28;45528;-76
2022/11/12 07:06:19;;;;;;;;;8.00;7.00;;;;;21.55;43.86;102701.38;5034659;28;47023;-76
2022/11/12 07:08:48;;;;;;;;;7.33;5.67;;;;;21.54;44.43;102697.94;5014321;28;45339;-76
2022/11/12 07:11:14;;;;;;;;;8.25;7.00;;;;;21.55;43.71;102696.09;5034375;28;45503;-76
2022/11/12 07:13:40;;;;;;;;;7.25;7.25;;;;;21.53;44.04;102704.19;5035827;28;45380;-76
2022/11/12 07:16:09;;;;;;;;;5.67;5.33;;;;;21.51;44.42;102704.31;5035160;28;46481;-77
2022/11/12 07:18:35;;;;;;;;;7.33;7.33;;;;;21.52;44.40;102698.03;5034979;28;45527;-76
2022/11/12 07:21:03;;;;;;;;;6.67;6.67;;;;;21.51;44.22;102714.06;5034972;28;45429;-77
2022/11/12 07:23:31;;;;;;;;;8.33;6.33;;;;;21.50;43.75;102721.19;5036166;28;45422;-77
2022/11/12 07:26:00;;;;;;;;;6.67;6.33;;;;;21.51;43.91;102720.22;5035391;28;46353;-76
2022/11/12 07:28:27;;;;;;;;;6.00;6.00;;;;;21.52;44.26;102723.69;5034976;28;45287;-77
2022/11/12 07:31:01;;;;;;;;;6.33;5.00;;;;;21.44;43.96;102711.13;5035581;28;45328;-76
2022/11/12 07:33:27;;;;;;;;;7.67;6.67;;;;;21.46;44.18;102719.78;5035280;28;45550;-76
2022/11/12 07:36:10;;;;;;;;;6.33;6.33;;;;;21.50;44.41;102725.63;5034905;28;46999;-76
2022/11/12 07:38:38;;;;;;;;;8.00;7.50;;;;;21.48;44.27;102732.88;5034743;28;45426;-76
2022/11/12 07:41:15;;;;;;;;;7.67;7.00;;;;;21.45;43.82;102741.91;5035307;28;45380;-77
2022/11/12 07:43:45;;;;;;;;;7.67;6.00;;;;;21.44;43.92;102742.91;5035160;28;45447;-76
2022/11/12 07:46:14;;;;;;;;;8.00;7.00;;;;;21.48;43.96;102746.09;5034943;28;47812;-76
2022/11/12 07:48:40;;;;;;;;;10.25;6.50;;;;;21.39;44.30;102737.97;5016796;28;45525;-77
2022/11/12 07:51:12;;;;;;;;;6.00;6.00;;;;;21.44;43.85;102753.50;5035223;28;45458;-77
2022/11/12 07:53:38;;;;;;;;;6.00;5.67;;;;;21.43;44.33;102751.81;5034728;28;45437;-76
2022/11/12 07:56:03;;;;;;;;;2.33;1.00;;;;;21.43;44.17;102754.44;5035200;28;45393;-76
2022/11/12 07:58:31;;;;;;;;;5.00;5.00;;;;;21.45;44.00;102754.31;5017146;28;45571;-76
2022/11/12 08:00:57;;;;;;;;;6.33;6.33;;;;;21.45;44.37;102755.16;5035196;28;45426;-76
2022/11/12 08:03:22;;;;;;;;;7.00;7.00;;;;;21.45;44.45;102756.97;5034903;28;45940;-76
2022/11/12 08:05:47;;;;;;;;;8.33;7.00;;;;;21.45;44.30;102755.16;5020629;28;46525;-75
2022/11/12 08:08:13;;;;;;;;;6.00;6.00;;;;;21.42;44.24;102751.94;5034934;28;45500;-76
2022/11/12 08:10:38;;;;;;;;;6.00;5.00;;;;;21.44;44.08;102760.59;5035136;28;45424;-76
2022/11/12 08:13:04;;;;;;;;;7.00;6.67;;;;;;;;5035089;28;45371;-76
2022/11/12 08:15:29;;;;;;;;;6.00;6.00;;;;;;;;5035635;28;45761;-77
2022/11/12 08:17:54;;;;;;;;;4.33;4.33;;;;;;;;5034333;28;45406;-76
2022/11/12 08:20:20;;;;;;;;;6.00;6.00;;;;;21.44;44.32;102779.13;5035215;28;45405;-76
2022/11/12 08:22:45;;;;;;;;;7.67;7.00;;;;;;;;5030013;28;45497;-74
2022/11/12 08:25:11;;;;;;;;;6.00;6.00;;;;;21.43;44.56;102770.34;5027055;28;47453;-74
2022/11/12 08:27:36;;;;;;;;;9.33;7.67;;;;;21.46;43.84;102764.78;5029514;28;45385;-74
2022/11/12 08:30:02;;;;;;;;;6.00;6.00;;;;;21.47;44.45;102765.59;5028764;28;45498;-74
2022/11/12 08:32:28;;;;;;;;;8.00;6.00;;;;;21.48;44.39;102768.13;5032544;28;45344;-73
2022/11/12 08:34:53;;;;;;;;;8.67;6.00;;;;;21.37;44.44;102753.16;5029095;28;45228;-74
2022/11/12 08:37:18;;;;;;;;;8.75;8.75;;;;;21.50;43.92;102779.44;5032086;28;47996;-74
2022/11/12 08:39:44;;;;;;;;;6.67;5.00;;;;;21.50;44.20;102765.34;5030255;28;45481;-74
2022/11/12 08:42:09;;;;;;;;;5.00;3.67;;;;;21.51;43.99;102764.41;5031383;28;45491;-74
2022/11/12 08:44:34;;;;;;;;;7.00;5.00;;;;;21.52;44.16;102752.81;5025575;28;46097;-74
2022/11/12 08:47:00;;;;;;;;;6.00;5.00;;;;;21.53;44.57;102751.84;5031898;28;45566;-74
2022/11/12 08:49:25;;;;;;;;;5.00;5.00;;;;;21.42;44.29;102736.06;5019199;28;45461;-74
2022/11/12 08:51:51;;;;;;;;;4.25;4.25;;;;;21.55;44.18;102764.97;5033024;28;45472;-73
2022/11/12 08:54:16;;;;;;;;;5.67;5.67;;;;;21.58;44.40;102775.28;5032319;28;46283;-74
2022/11/12 08:56:41;;;;;;;;;4.33;3.00;;;;;21.55;44.46;102778.19;5013757;28;45614;-75
2022/11/12 08:59:07;;;;;;;;;6.33;6.33;;;;;21.57;44.93;102785.03;5032665;28;45495;-76
2022/11/12 09:01:32;;;;;;;;;6.33;5.00;;;;;21.56;45.08;102787.84;5030795;28;45479;-74
2022/11/12 09:03:58;;;;;;;;;5.00;4.33;;;;;21.57;45.02;102787.69;5013225;28;46191;-73
2022/11/12 09:06:23;;;;;;;;;5.67;5.67;;;;;21.58;45.15;102785.91;5035249;28;45370;-71
2022/11/12 09:08:48;;;;;;;;;8.00;6.25;;;;;21.56;44.98;102766.66;5036308;28;45503;-71
2022/11/12 09:11:14;;;;;;;;;7.00;6.00;;;;;21.58;44.76;102776.16;5031305;28;45447;-71
2022/11/12 09:13:39;;;;;;;;;8.00;5.33;;;;;21.54;44.63;102772.09;5032757;28;46054;-72
2022/11/12 09:16:06;;;;;;;;;5.25;5.25;;;;;21.57;45.03;102781.59;5022673;28;45399;-74
2022/11/12 09:18:33;;;;;;;;;7.75;7.00;;;;;21.55;45.13;102776.41;5016954;28;45372;-70
2022/11/12 09:21:09;;;;;;;;;4.75;4.75;;;;;21.56;45.13;102780.75;5018647;28;45240;-71
2022/11/12 09:23:36;;;;;;;;;6.25;6.00;;;;;21.58;44.71;102785.91;5017308;28;47219;-72
2022/11/12 09:26:02;;;;;;;;;6.00;5.00;;;;;21.57;45.04;102784.22;5017448;28;45350;-72
2022/11/12 09:28:27;;;;;;;;;6.50;6.25;;;;;21.54;44.61;102787.97;5023614;28;45426;-74
2022/11/12 09:30:54;;;;;;;;;9.75;7.75;;;;;21.52;44.91;102774.84;5018605;28;45300;-71
2022/11/12 09:33:28;;;;;;;;;6.00;6.00;;;;;21.51;45.13;102773.19;5017479;28;45363;-71
2022/11/12 09:35:54;;;;;;;;;7.00;7.00;;;;;21.53;44.67;102788.94;5017066;28;45342;-71
2022/11/12 09:38:21;;;;;;;;;6.67;3.00;;;;;21.50;44.98;102784.75;5018835;28;45528;-71
2022/11/12 09:40:46;;;;;;;;;5.33;5.33;;;;;21.53;45.30;102778.34;5018057;28;45509;-71
2022/11/12 09:43:26;;;;;;;;;7.33;5.33;;;;;21.55;44.69;102775.56;5017040;28;45438;-71
2022/11/12 09:45:55;;;;;;;;;6.67;6.67;;;;;21.53;44.91;102791.59;5022590;28;45555;-71
2022/11/12 09:48:28;;;;;;;;;7.00;5.33;;;;;21.54;44.61;102790.63;5017213;28;45512;-71
2022/11/12 09:51:15;;;;;;;;;4.50;4.50;;;;;21.54;45.22;102779.19;5019844;28;45320;-71
2022/11/12 09:54:19;;;;;;;;;9.33;7.33;;;;;21.55;44.77;102791.44;5026084;28;46084;-71
2022/11/12 09:56:47;;;;;;;;;7.00;5.50;;;;;21.49;44.94;102785.69;4937631;28;45550;-71
2022/11/12 09:59:13;;;;;;;;;6.00;5.00;;;;;21.51;44.99;102767.03;4942395;28;45489;-71
2022/11/12 10:02:14;;;;;;;;;8.33;6.00;;;;;21.50;44.61;102757.41;4955017;28;45302;-71
2022/11/12 10:04:42;;;;;;;;;7.67;7.00;;;;;21.51;44.97;102762.59;4947153;28;45422;-71
2022/11/12 10:07:20;;;;;;;;;6.33;6.33;;;;;21.53;44.82;102773.03;4943744;28;45441;-71
2022/11/12 10:09:58;;;;;;;;;6.67;6.00;;;;;21.52;44.92;102766.91;4944681;28;45307;-71
2022/11/12 10:12:37;;;;;;;;;6.67;5.67;;;;;21.52;45.00;102777.50;4937379;28;45414;-71
2022/11/12 10:18:30;;;;;;;;;5.33;5.00;;;;;21.55;45.05;102781.69;4923616;28;45989;-71
2022/11/12 10:21:05;;;;;;;;;5.00;5.00;;;;;21.55;45.17;102797.59;4943673;28;45369;-71
2022/11/12 10:23:48;;;;;;;;;5.00;5.00;;;;;21.53;44.56;102802.19;4938083;28;45543;-71
2022/11/12 10:26:16;;;;;;;;;8.00;6.00;;;;;21.58;45.16;102809.72;4940015;28;46445;-71
2022/11/12 10:29:01;;;;;;;;;6.00;6.00;;;;;21.57;45.01;102811.53;4935804;28;45460;-72
2022/11/12 10:31:27;;;;;;;;;6.00;6.00;;;;;21.57;44.95;102808.06;4938899;28;45620;-71
2022/11/12 10:34:16;;;;;;;;;7.00;6.00;;;;;21.58;45.03;102805.28;5006925;28;45559;-71
2022/11/12 10:36:47;;;;;;;;;5.67;5.67;;;;;21.56;44.66;102803.72;5036275;28;47071;-71
2022/11/12 10:39:32;;;;;;;;;5.67;4.33;;;;;21.57;44.96;102798.28;5036228;28;45401;-71
2022/11/12 10:42:13;;;;;;;;;7.00;7.00;;;;;21.58;44.67;102804.44;5036222;28;45464;-71
2022/11/12 10:44:42;;;;;;;;;5.67;4.67;;;;;21.61;44.74;102812.97;5036183;28;45287;-71
2022/11/12 10:47:49;;;;;;;;;6.67;6.00;;;;;21.61;44.74;102801.53;5036103;28;45408;-71
2022/11/12 10:50:27;;;;;;;;;7.00;5.67;;;;;21.61;44.91;102791.78;5034647;28;45351;-71
2022/11/12 10:53:04;;;;;;;;;6.00;6.00;;;;;21.61;44.57;102794.44;5035416;28;45297;-71
2022/11/12 10:55:35;;;;;;;;;6.33;6.00;;;;;21.62;44.84;102784.69;5015928;28;45449;-71
2022/11/12 10:58:10;;;;;;;;;5.67;5.67;;;;;21.63;44.98;102781.03;5031918;28;46217;-71
2022/11/12 11:01:11;;;;;;;;;8.67;5.00;;;;;21.63;44.95;102770.44;5035691;28;45473;-71
2022/11/12 11:03:46;;;;;;;;;5.33;5.33;;;;;21.61;44.77;102762.66;5019563;28;45335;-71
2022/11/12 11:06:15;;;;;;;;;5.00;5.00;;;;;21.62;44.83;102760.84;5035144;28;45436;-71
2022/11/12 11:08:46;;;;;;;;;9.33;6.33;;;;;21.61;44.78;102762.66;5035724;28;46256;-71
2022/11/12 11:11:23;;;;;;;;;5.00;5.00;;;;;21.61;44.41;102759.16;5035632;28;45460;-72
2022/11/12 11:13:54;;;;;;;;;8.00;7.00;;;;;21.58;45.07;102746.16;5035477;28;45378;-71
2022/11/12 11:16:22;;;;;;;;;5.00;5.00;;;;;21.59;45.14;102742.56;5035425;28;45215;-71
2022/11/12 11:18:53;;;;;;;;;5.00;5.00;;;;;21.59;44.96;102742.56;5035518;28;45518;-71
2022/11/12 11:21:57;;;;;;;;;7.00;5.67;;;;;21.59;44.67;102742.56;5027304;28;45485;-71
2022/11/12 11:24:37;;;;;;;;;5.67;5.67;;;;;21.59;45.10;102747.84;5035005;28;45525;-72
2022/11/12 11:27:08;;;;;;;;;6.00;6.00;;;;;21.58;45.05;102732.91;5035352;28;45400;-72
2022/11/12 11:30:06;;;;;;;;;6.00;6.00;;;;;21.58;44.94;102728.47;5035089;28;47223;-72
2022/11/12 11:32:47;;;;;;;;;4.00;4.00;;;;;21.57;45.10;102721.47;5035437;28;45410;-71
2022/11/12 11:35:31;;;;;;;;;6.00;5.00;;;;;21.58;44.68;102719.69;5035593;28;45254;-71
2022/11/12 11:38:23;;;;;;;;;5.00;5.00;;;;;21.58;44.63;102717.88;5035410;28;45257;-71
2022/11/12 11:41:15;;;;;;;;;5.00;5.00;;;;;21.57;44.64;102707.41;5034994;28;45386;-71
2022/11/12 11:43:47;;;;;;;;;5.00;4.00;;;;;21.58;44.64;102703.78;5035205;28;45267;-71
2022/11/12 11:46:28;;;;;;;;;6.33;5.00;;;;;21.57;45.05;102697.63;5035471;28;45232;-71
2022/11/12 11:49:15;;;;;;;;;4.33;4.33;;;;;21.57;45.09;102696.81;5035269;28;45436;-71
2022/11/12 11:52:17;;;;;;;;;6.33;6.00;;;;;21.56;44.92;102698.63;5033223;28;46130;-72
2022/11/12 11:54:57;;;;;;;;;6.00;6.00;;;;;21.56;44.85;102693.34;5033021;28;45383;-71
2022/11/12 11:57:46;;;;;;;;;7.00;5.00;;;;;21.55;44.73;102688.16;5035025;28;45512;-71
2022/11/12 12:00:21;;;;;;;;;5.33;5.33;;;;;21.56;44.99;102685.38;5022502;28;45516;-71
2022/11/12 12:03:24;;;;;;;;;6.00;5.00;;;;;21.57;44.93;102681.75;5024767;28;46356;-72